createdAt,value
2019-02-02T00:00:50.996Z,6.40
2019-02-02T00:03:19.711Z,6.30
2019-02-02T00:05:48.436Z,6.50
2019-02-02T00:08:17.144Z,6.50
2019-02-02T00:10:45.819Z,6.70
2019-02-02T00:13:14.535Z,6.50
2019-02-02T00:15:43.238Z,6.60
2019-02-02T00:18:12.046Z,6.50
2019-02-02T00:20:40.940Z,6.60
2019-02-02T00:23:09.616Z,6.50
2019-02-02T00:25:38.324Z,6.50
2019-02-02T00:28:07.127Z,6.80
2019-02-02T00:30:35.834Z,6.70
2019-02-02T00:33:04.956Z,6.90
2019-02-02T00:35:33.643Z,6.70
2019-02-02T00:38:02.461Z,6.60
2019-02-02T00:40:31.152Z,6.70
2019-02-02T00:42:59.859Z,6.80
2019-02-02T00:45:28.602Z,6.60
2019-02-02T00:47:57.354Z,6.30
2019-02-02T00:50:26.036Z,6.20
2019-02-02T00:52:54.759Z,6.40
2019-02-02T00:55:23.599Z,6.10
2019-02-02T00:57:53.858Z,6.30
2019-02-02T01:00:24.732Z,6.40
2019-02-02T01:02:53.392Z,6.60
2019-02-02T01:05:23.062Z,6.40
2019-02-02T01:07:52.777Z,6.00
2019-02-02T01:10:30.078Z,6.10
2019-02-02T01:12:58.915Z,6.20
2019-02-02T01:15:27.692Z,6.40
2019-02-02T01:17:56.504Z,6.50
2019-02-02T01:20:25.164Z,6.70
2019-02-02T01:22:53.829Z,6.50
2019-02-02T01:25:22.533Z,6.80
2019-02-02T01:28:04.477Z,6.70
2019-02-02T01:30:25.748Z,6.60
2019-02-02T01:32:54.441Z,6.80
2019-02-02T01:35:23.184Z,6.70
2019-02-02T01:37:51.972Z,6.70
2019-02-02T01:40:25.714Z,6.60
2019-02-02T01:42:54.495Z,6.60
2019-02-02T01:45:25.614Z,6.60
2019-02-02T01:47:54.694Z,6.50
2019-02-02T01:50:25.427Z,6.30
2019-02-02T01:52:54.309Z,6.50
2019-02-02T01:55:22.988Z,6.60
2019-02-02T01:57:51.804Z,6.80
2019-02-02T02:00:26.132Z,6.40
2019-02-02T02:02:54.935Z,6.30
2019-02-02T02:05:23.665Z,6.40
2019-02-02T02:07:52.360Z,6.60
2019-02-02T02:10:21.455Z,6.70
2019-02-02T02:12:50.687Z,6.40
2019-02-02T02:15:20.486Z,6.30
2019-02-02T02:17:49.841Z,6.30
2019-02-02T02:20:20.280Z,6.00
2019-02-02T02:22:50.185Z,6.00
2019-02-02T02:25:20.452Z,6.00
2019-02-02T02:27:49.876Z,6.20
2019-02-02T02:30:20.085Z,6.40
2019-02-02T02:32:48.818Z,6.30
2019-02-02T02:35:17.604Z,6.60
2019-02-02T02:37:46.551Z,6.70
2019-02-02T02:40:17.557Z,6.50
2019-02-02T02:42:46.459Z,6.60
2019-02-02T02:45:15.363Z,6.60
2019-02-02T02:47:44.043Z,6.40
2019-02-02T02:50:14.958Z,6.60
2019-02-02T02:52:43.651Z,6.50
2019-02-02T02:55:14.144Z,6.30
2019-02-02T02:57:42.828Z,6.40
2019-02-02T03:00:14.439Z,6.70
2019-02-02T03:02:43.153Z,6.70
2019-02-02T03:05:12.595Z,6.60
2019-02-02T03:07:41.302Z,6.50
2019-02-02T03:10:15.542Z,6.80
2019-02-02T03:12:44.453Z,6.80
2019-02-02T03:15:15.580Z,6.40
2019-02-02T03:17:44.450Z,6.60
2019-02-02T03:20:14.963Z,6.30
2019-02-02T03:22:43.846Z,6.40
2019-02-02T03:25:21.195Z,6.50
2019-02-02T03:27:49.877Z,6.40
2019-02-02T03:30:22.444Z,6.60
2019-02-02T03:32:51.124Z,6.30
2019-02-02T03:35:24.132Z,6.50
2019-02-02T03:37:53.211Z,6.40
2019-02-02T03:40:23.352Z,6.70
2019-02-02T03:42:52.377Z,6.80
2019-02-02T03:45:25.295Z,6.70
2019-02-02T03:47:55.018Z,6.50
2019-02-02T03:50:23.677Z,6.40
2019-02-02T03:52:52.395Z,6.80
2019-02-02T03:55:21.086Z,6.70
2019-02-02T03:57:49.759Z,6.70
2019-02-02T04:00:23.026Z,7.00
2019-02-02T04:02:51.812Z,6.90
2019-02-02T04:05:28.710Z,6.70
2019-02-02T04:07:57.622Z,6.80
2019-02-02T04:10:26.321Z,6.70
2019-02-02T04:12:55.068Z,6.50
2019-02-02T04:15:23.850Z,6.60
2019-02-02T04:17:52.741Z,6.70
2019-02-02T04:20:24.602Z,6.60
2019-02-02T04:22:53.275Z,6.60
2019-02-02T04:25:22.692Z,6.60
2019-02-02T04:27:51.508Z,6.80
2019-02-02T04:30:22.796Z,6.70
2019-02-02T04:32:51.619Z,6.50
2019-02-02T04:35:20.483Z,6.70
2019-02-02T04:37:49.189Z,6.30
2019-02-02T04:40:17.911Z,6.30
2019-02-02T04:42:46.934Z,6.40
2019-02-02T04:45:16.944Z,6.30
2019-02-02T04:47:45.660Z,6.30
2019-02-02T04:50:16.916Z,6.40
2019-02-02T04:52:45.626Z,6.20
2019-02-02T04:55:16.737Z,6.40
2019-02-02T04:57:45.453Z,6.00
2019-02-02T05:00:28.088Z,6.20
2019-02-02T05:02:56.878Z,6.00
2019-02-02T05:05:25.584Z,6.10
2019-02-02T05:07:54.298Z,6.20
2019-02-02T05:10:24.616Z,6.10
2019-02-02T05:12:53.454Z,6.10
2019-02-02T05:15:22.280Z,6.00
2019-02-02T05:17:51.288Z,6.30
2019-02-02T05:20:20.765Z,6.30
2019-02-02T05:22:49.645Z,6.40
2019-02-02T05:25:18.684Z,6.40
2019-02-02T05:27:47.416Z,6.50
2019-02-02T05:30:24.542Z,6.50
2019-02-02T05:32:53.231Z,6.50
2019-02-02T05:35:21.934Z,6.50
2019-02-02T05:37:50.634Z,6.50
2019-02-02T05:40:23.514Z,6.40
2019-02-02T05:42:52.221Z,6.40
2019-02-02T05:45:22.701Z,6.40
2019-02-02T05:47:51.395Z,6.50
2019-02-02T05:50:23.857Z,6.40
2019-02-02T05:52:52.914Z,6.20
2019-02-02T05:55:23.193Z,6.40
2019-02-02T05:57:52.003Z,6.50
2019-02-02T06:00:25.058Z,6.50
2019-02-02T06:02:53.742Z,6.40
2019-02-02T06:05:22.465Z,6.50
2019-02-02T06:07:51.187Z,6.40
2019-02-02T06:10:20.663Z,6.60
2019-02-02T06:12:49.381Z,6.60
2019-02-02T06:15:18.135Z,6.70
2019-02-02T06:17:46.858Z,6.80
2019-02-02T06:20:18.499Z,6.80
2019-02-02T06:22:47.232Z,6.70
2019-02-02T06:25:16.466Z,6.70
2019-02-02T06:27:45.237Z,6.70
2019-02-02T06:30:16.664Z,7.00
2019-02-02T06:32:45.398Z,6.80
2019-02-02T06:35:14.726Z,7.00
2019-02-02T06:37:43.936Z,6.70
2019-02-02T06:40:16.734Z,6.90
2019-02-02T06:42:45.503Z,6.70
2019-02-02T06:45:20.334Z,6.50
2019-02-02T06:47:49.041Z,6.60
2019-02-02T06:50:17.961Z,6.40
2019-02-02T06:52:46.669Z,6.40
2019-02-02T06:55:16.729Z,6.30
2019-02-02T06:57:45.420Z,5.90
2019-02-02T07:00:17.071Z,6.30
2019-02-02T07:02:45.752Z,6.20
2019-02-02T07:05:14.586Z,6.00
2019-02-02T07:07:43.292Z,6.00
2019-02-02T07:10:14.956Z,6.10
2019-02-02T07:12:43.748Z,6.40
2019-02-02T07:15:15.181Z,6.10
2019-02-02T07:17:44.195Z,6.40
2019-02-02T07:20:14.622Z,6.40
2019-02-02T07:22:43.495Z,6.20
2019-02-02T07:25:12.990Z,6.20
2019-02-02T07:27:41.728Z,6.20
2019-02-02T07:30:27.610Z,6.30
2019-02-02T07:32:46.911Z,6.20
2019-02-02T07:35:15.638Z,6.20
2019-02-02T07:37:44.314Z,6.20
2019-02-02T07:40:15.264Z,6.50
2019-02-02T07:42:44.050Z,6.60
2019-02-02T07:45:15.610Z,6.50
2019-02-02T07:47:44.617Z,6.70
2019-02-02T07:50:17.919Z,6.90
2019-02-02T07:52:46.615Z,6.70
2019-02-02T07:55:21.289Z,6.80
2019-02-02T07:57:49.980Z,6.80
2019-02-02T08:00:21.546Z,6.80
2019-02-02T08:02:50.334Z,6.70
2019-02-02T08:05:19.100Z,6.70
2019-02-02T08:07:47.798Z,6.60
2019-02-02T08:10:16.783Z,6.60
2019-02-02T08:12:45.566Z,6.80
2019-02-02T08:15:16.722Z,6.50
2019-02-02T08:17:45.410Z,6.60
2019-02-02T08:20:14.889Z,6.90
2019-02-02T08:22:43.772Z,6.70
2019-02-02T08:25:16.711Z,6.80
2019-02-02T08:27:45.867Z,6.90
2019-02-02T08:30:29.139Z,6.90
2019-02-02T08:32:57.820Z,7.10
2019-02-02T08:35:26.687Z,6.80
2019-02-02T08:37:55.523Z,6.80
2019-02-02T08:40:24.239Z,6.50
2019-02-02T08:42:52.962Z,6.80
2019-02-02T08:45:21.863Z,6.80
2019-02-02T08:47:50.643Z,6.80
2019-02-02T08:50:25.270Z,6.90
2019-02-02T08:52:53.966Z,6.80
2019-02-02T08:55:22.993Z,7.10
2019-02-02T08:57:51.811Z,7.10
2019-02-02T09:00:21.130Z,6.90
2019-02-02T09:02:49.877Z,6.50
2019-02-02T09:05:21.168Z,6.50
2019-02-02T09:07:49.895Z,6.50
2019-02-02T09:10:23.766Z,6.70
2019-02-02T09:12:52.427Z,6.60
2019-02-02T09:15:21.381Z,6.50
2019-02-02T09:17:50.196Z,6.80
2019-02-02T09:20:18.913Z,7.00
2019-02-02T09:22:47.888Z,7.00
2019-02-02T09:25:18.023Z,6.80
2019-02-02T09:27:47.410Z,6.80
2019-02-02T09:30:22.155Z,7.10
2019-02-02T09:32:50.925Z,6.90
2019-02-02T09:35:19.737Z,7.20
2019-02-02T09:37:48.542Z,7.10
2019-02-02T09:40:19.108Z,7.10
2019-02-02T09:42:47.831Z,7.20
2019-02-02T09:45:18.976Z,7.20
2019-02-02T09:47:48.030Z,6.90
2019-02-02T09:50:26.121Z,7.10
2019-02-02T09:52:54.812Z,7.00
2019-02-02T09:55:25.042Z,6.90
2019-02-02T09:57:56.035Z,6.80
2019-02-02T10:00:27.329Z,6.90
2019-02-02T10:02:57.491Z,6.80
2019-02-02T10:05:26.385Z,6.70
2019-02-02T10:07:55.118Z,6.50
2019-02-02T10:10:26.203Z,6.70
2019-02-02T10:12:54.929Z,6.20
2019-02-02T10:15:23.654Z,6.20
2019-02-02T10:17:52.441Z,6.40
2019-02-02T10:20:24.117Z,6.50
2019-02-02T10:22:53.022Z,6.10
2019-02-02T10:25:24.254Z,6.40
2019-02-02T10:27:52.982Z,6.10
2019-02-02T10:30:27.315Z,6.00
2019-02-02T10:32:56.076Z,6.10
2019-02-02T10:35:24.843Z,6.20
2019-02-02T10:37:53.652Z,6.30
2019-02-02T10:40:22.396Z,6.20
2019-02-02T10:42:51.216Z,6.20
2019-02-02T10:45:20.272Z,6.30
2019-02-02T10:47:49.020Z,6.00
2019-02-02T10:50:22.178Z,5.90
2019-02-02T10:52:50.896Z,6.20
2019-02-02T10:55:19.754Z,6.20
2019-02-02T10:57:48.468Z,6.30
2019-02-02T11:00:26.006Z,6.40
2019-02-02T11:02:54.731Z,6.10
2019-02-02T11:05:23.627Z,6.10
2019-02-02T11:07:54.572Z,6.20
2019-02-02T11:10:34.299Z,6.20
2019-02-02T11:13:03.230Z,6.10
2019-02-02T11:15:32.078Z,6.10
2019-02-02T11:18:01.063Z,6.10
2019-02-02T11:20:32.419Z,6.00
2019-02-02T11:23:01.201Z,6.10
2019-02-02T11:25:30.182Z,6.00
2019-02-02T11:27:59.045Z,6.00
2019-02-02T11:30:28.507Z,6.10
2019-02-02T11:32:57.367Z,6.30
2019-02-02T11:35:26.153Z,6.00
2019-02-02T11:37:54.976Z,6.00
2019-02-02T11:40:28.962Z,6.20
2019-02-02T11:42:57.733Z,6.10
2019-02-02T11:45:26.473Z,6.10
2019-02-02T11:47:55.258Z,6.30
2019-02-02T11:50:24.386Z,6.10
2019-02-02T11:52:53.115Z,5.90
2019-02-02T11:55:26.141Z,6.20
2019-02-02T11:57:54.830Z,6.10
2019-02-02T12:00:31.860Z,5.80
2019-02-02T12:03:00.580Z,6.10
2019-02-02T12:05:29.468Z,6.10
2019-02-02T12:07:58.193Z,6.10
2019-02-02T12:10:29.185Z,6.10
2019-02-02T12:12:57.929Z,6.10
2019-02-02T12:15:26.755Z,6.20
2019-02-02T12:17:55.466Z,6.10
2019-02-02T12:20:25.246Z,6.10
2019-02-02T12:22:54.011Z,6.10
2019-02-02T12:25:22.842Z,6.20
2019-02-02T12:27:51.520Z,6.20
2019-02-02T12:30:22.796Z,6.20
2019-02-02T12:32:51.587Z,6.20
2019-02-02T12:35:24.860Z,5.90
2019-02-02T12:37:53.539Z,6.20
2019-02-02T12:40:23.956Z,6.00
2019-02-02T12:42:52.667Z,5.90
2019-02-02T12:45:24.531Z,5.90
2019-02-02T12:47:53.249Z,6.10
2019-02-02T12:50:21.924Z,6.10
2019-02-02T12:52:50.684Z,5.80
2019-02-02T12:55:19.481Z,5.90
2019-02-02T12:57:49.178Z,6.00
2019-02-02T13:00:19.978Z,6.00
2019-02-02T13:02:48.735Z,5.90
2019-02-02T13:05:22.718Z,6.10
2019-02-02T13:07:51.983Z,6.00
2019-02-02T13:10:25.116Z,6.00
2019-02-02T13:12:54.329Z,6.00
2019-02-02T13:15:23.461Z,5.90
2019-02-02T13:17:52.237Z,6.20
2019-02-02T13:20:20.958Z,6.00
2019-02-02T13:22:49.853Z,6.00
2019-02-02T13:25:21.142Z,6.10
2019-02-02T13:27:50.010Z,6.00
2019-02-02T13:30:24.340Z,5.70
2019-02-02T13:32:53.218Z,5.90
2019-02-02T13:35:22.785Z,5.90
2019-02-02T13:37:52.156Z,5.80
2019-02-02T13:40:24.897Z,5.80
2019-02-02T13:42:53.649Z,5.90
2019-02-02T13:45:23.546Z,5.70
2019-02-02T13:47:52.563Z,5.50
2019-02-02T13:50:21.962Z,5.60
2019-02-02T13:52:52.051Z,5.80
2019-02-02T13:55:21.259Z,6.10
2019-02-02T13:57:49.990Z,5.60
2019-02-02T14:00:31.953Z,5.70
2019-02-02T14:03:03.332Z,5.60
2019-02-02T14:05:31.095Z,5.80
2019-02-02T14:08:00.350Z,5.80
2019-02-02T14:10:31.366Z,5.90
2019-02-02T14:13:03.378Z,6.00
2019-02-02T14:15:32.142Z,5.70
2019-02-02T14:18:02.630Z,6.00
2019-02-02T14:20:31.363Z,6.00
2019-02-02T14:23:00.046Z,5.90
2019-02-02T14:25:28.744Z,5.70
2019-02-02T14:27:57.457Z,5.90
2019-02-02T14:30:26.776Z,6.00
2019-02-02T14:32:55.532Z,5.90
2019-02-02T14:35:26.362Z,6.10
2019-02-02T14:37:55.098Z,5.90
2019-02-02T14:40:23.750Z,5.90
2019-02-02T14:42:52.475Z,5.60
2019-02-02T14:45:23.268Z,5.60
2019-02-02T14:47:51.977Z,5.50
2019-02-02T14:50:21.875Z,5.60
2019-02-02T14:52:51.811Z,5.60
2019-02-02T14:55:23.295Z,5.40
2019-02-02T14:57:51.983Z,5.50
2019-02-02T15:00:26.137Z,5.60
2019-02-02T15:02:54.829Z,5.50
2019-02-02T15:05:23.515Z,5.40
2019-02-02T15:07:54.070Z,5.50
2019-02-02T15:10:23.668Z,5.70
2019-02-02T15:12:52.466Z,5.80
2019-02-02T15:15:21.200Z,5.80
2019-02-02T15:17:49.887Z,5.90
2019-02-02T15:20:26.775Z,5.70
2019-02-02T15:22:55.490Z,5.60
2019-02-02T15:25:24.216Z,5.70
2019-02-02T15:27:52.909Z,5.70
2019-02-02T15:30:24.621Z,5.30
2019-02-02T15:32:53.990Z,5.40
2019-02-02T15:35:22.682Z,5.40
2019-02-02T15:37:51.620Z,5.70
2019-02-02T15:40:20.429Z,5.40
2019-02-02T15:42:49.207Z,5.30
2019-02-02T15:45:20.291Z,5.30
2019-02-02T15:47:49.150Z,5.40
2019-02-02T15:50:18.069Z,5.20
2019-02-02T15:52:47.473Z,5.40
2019-02-02T15:55:17.964Z,5.50
2019-02-02T15:57:47.040Z,5.60
2019-02-02T16:00:24.721Z,5.70
2019-02-02T16:02:53.423Z,5.50
2019-02-02T16:05:22.550Z,5.70
2019-02-02T16:07:51.375Z,5.70
2019-02-02T16:10:22.827Z,5.50
2019-02-02T16:12:51.734Z,5.40
2019-02-02T16:15:20.563Z,5.60
2019-02-02T16:17:49.231Z,5.70
2019-02-02T16:20:29.746Z,5.60
2019-02-02T16:23:01.166Z,5.50
2019-02-02T16:25:29.936Z,5.70
2019-02-02T16:27:58.852Z,5.60
2019-02-02T16:30:28.974Z,5.80
2019-02-02T16:32:57.752Z,5.90
2019-02-02T16:35:26.443Z,5.80
2019-02-02T16:37:55.569Z,5.60
2019-02-02T16:40:29.223Z,5.60
2019-02-02T16:42:58.135Z,5.70
2019-02-02T16:45:32.018Z,5.60
2019-02-02T16:48:00.735Z,5.60
2019-02-02T16:50:29.545Z,5.60
2019-02-02T16:52:58.227Z,5.60
2019-02-02T16:55:26.971Z,5.40
2019-02-02T16:57:55.663Z,5.70
2019-02-02T17:00:29.854Z,5.70
2019-02-02T17:03:00.093Z,5.80
2019-02-02T17:05:28.905Z,5.90
2019-02-02T17:07:57.661Z,5.80
2019-02-02T17:10:31.308Z,5.70
2019-02-02T17:12:59.994Z,5.80
2019-02-02T17:15:28.929Z,5.70
2019-02-02T17:17:57.659Z,6.00
2019-02-02T17:20:32.726Z,6.00
2019-02-02T17:23:01.473Z,6.20
2019-02-02T17:25:30.340Z,5.90
2019-02-02T17:27:59.027Z,6.10
2019-02-02T17:30:27.841Z,5.90
2019-02-02T17:32:59.670Z,5.80
2019-02-02T17:35:28.345Z,5.80
2019-02-02T17:37:57.110Z,5.90
2019-02-02T17:40:28.217Z,5.80
2019-02-02T17:42:56.924Z,5.90
2019-02-02T17:45:25.827Z,5.80
2019-02-02T17:47:54.513Z,5.90
2019-02-02T17:50:30.447Z,6.10
2019-02-02T17:52:59.243Z,6.00
2019-02-02T17:55:28.011Z,5.80
2019-02-02T17:57:56.707Z,5.80
2019-02-02T18:00:29.855Z,5.70
2019-02-02T18:02:58.573Z,5.90
2019-02-02T18:05:27.367Z,5.80
2019-02-02T18:07:56.064Z,5.80
2019-02-02T18:10:24.795Z,5.70
2019-02-02T18:12:53.561Z,5.70
2019-02-02T18:15:22.355Z,5.50
2019-02-02T18:17:51.245Z,5.90
2019-02-02T18:20:19.928Z,5.70
2019-02-02T18:22:48.605Z,5.80
2019-02-02T18:25:20.380Z,5.70
2019-02-02T18:27:49.115Z,5.50
2019-02-02T18:30:23.207Z,5.50
2019-02-02T18:32:51.923Z,5.40
2019-02-02T18:35:20.717Z,5.30
2019-02-02T18:37:49.456Z,5.60
2019-02-02T18:40:19.920Z,5.60
2019-02-02T18:42:48.614Z,5.70
2019-02-02T18:45:22.532Z,5.50
2019-02-02T18:47:51.264Z,5.60
2019-02-02T18:50:19.947Z,5.50
2019-02-02T18:52:50.196Z,5.50
2019-02-02T18:55:21.679Z,5.30
2019-02-02T18:57:50.375Z,5.40
2019-02-02T19:00:20.935Z,5.50
2019-02-02T19:02:49.972Z,5.40
2019-02-02T19:05:18.716Z,5.30
2019-02-02T19:07:47.594Z,5.30
2019-02-02T19:10:25.013Z,5.50
2019-02-02T19:12:53.696Z,5.50
2019-02-02T19:15:22.440Z,5.50
2019-02-02T19:17:51.221Z,5.50
2019-02-02T19:20:21.641Z,5.50
2019-02-02T19:22:50.328Z,5.50
2019-02-02T19:25:19.036Z,5.20
2019-02-02T19:27:47.881Z,5.10
2019-02-02T19:30:31.221Z,5.50
2019-02-02T19:32:59.957Z,5.70
2019-02-02T19:35:28.652Z,5.50
2019-02-02T19:37:57.506Z,5.40
2019-02-02T19:40:26.197Z,5.50
2019-02-02T19:42:55.048Z,5.30
2019-02-02T19:45:28.012Z,5.30
2019-02-02T19:47:56.734Z,5.20
2019-02-02T19:50:27.047Z,5.30
2019-02-02T19:52:55.795Z,5.00
2019-02-02T19:55:24.544Z,5.00
2019-02-02T19:57:53.266Z,5.30
2019-02-02T20:00:27.800Z,5.40
2019-02-02T20:02:56.589Z,5.20
2019-02-02T20:05:28.797Z,5.20
2019-02-02T20:07:55.917Z,5.30
2019-02-02T20:10:24.652Z,5.10
2019-02-02T20:12:53.393Z,5.00
2019-02-02T20:15:24.757Z,5.10
2019-02-02T20:17:53.473Z,4.90
2019-02-02T20:20:23.892Z,4.70
2019-02-02T20:22:52.819Z,4.70
2019-02-02T20:25:21.596Z,4.90
2019-02-02T20:27:50.428Z,4.80
2019-02-02T20:30:21.580Z,4.70
2019-02-02T20:32:50.284Z,4.70
2019-02-02T20:35:19.206Z,4.60
2019-02-02T20:37:47.886Z,4.90
2019-02-02T20:40:18.720Z,4.80
2019-02-02T20:42:47.571Z,4.70
2019-02-02T20:45:18.908Z,4.70
2019-02-02T20:47:47.597Z,4.80
2019-02-02T20:50:19.602Z,4.80
2019-02-02T20:52:48.676Z,5.00
2019-02-02T20:55:26.160Z,4.80
2019-02-02T20:57:54.989Z,5.30
2019-02-02T21:00:25.793Z,5.20
2019-02-02T21:02:54.571Z,5.30
2019-02-02T21:05:23.257Z,5.00
2019-02-02T21:07:51.965Z,5.00
2019-02-02T21:10:24.093Z,5.30
2019-02-02T21:12:52.829Z,5.30
2019-02-02T21:15:21.529Z,5.10
2019-02-02T21:17:50.213Z,5.50
2019-02-02T21:20:27.345Z,5.60
2019-02-02T21:22:56.346Z,5.40
2019-02-02T21:25:25.450Z,5.20
2019-02-02T21:27:54.293Z,5.30
2019-02-02T21:30:28.395Z,5.60
2019-02-02T21:32:57.111Z,5.60
2019-02-02T21:35:25.770Z,5.50
2019-02-02T21:37:54.624Z,5.30
2019-02-02T21:40:29.629Z,5.30
2019-02-02T21:42:58.399Z,5.50
2019-02-02T21:45:27.168Z,5.40
2019-02-02T21:47:56.160Z,5.40
2019-02-02T21:50:26.364Z,5.70
2019-02-02T21:52:55.690Z,5.50
2019-02-02T21:55:29.402Z,5.60
2019-02-02T21:57:58.273Z,5.80
2019-02-02T22:00:32.839Z,5.60
2019-02-02T22:03:01.689Z,6.10
2019-02-02T22:05:30.419Z,5.90
2019-02-02T22:07:59.329Z,5.80
2019-02-02T22:10:28.071Z,5.80
2019-02-02T22:12:57.126Z,5.70
2019-02-02T22:15:27.254Z,5.50
2019-02-02T22:17:55.951Z,5.30
2019-02-02T22:20:24.851Z,5.50
2019-02-02T22:22:53.598Z,5.60
2019-02-02T22:25:29.984Z,5.50
2019-02-02T22:27:58.851Z,5.40
2019-02-02T22:30:32.816Z,5.60
2019-02-02T22:33:01.916Z,5.30
2019-02-02T22:35:30.814Z,5.30
2019-02-02T22:37:59.766Z,5.20
2019-02-02T22:40:29.120Z,5.40
2019-02-02T22:42:57.832Z,5.80
2019-02-02T22:45:26.519Z,5.60
2019-02-02T22:47:55.354Z,5.70
2019-02-02T22:50:26.379Z,5.70
2019-02-02T22:52:55.364Z,5.80
2019-02-02T22:55:25.079Z,5.40
2019-02-02T22:57:54.631Z,5.60
2019-02-02T23:00:43.230Z,5.20
2019-02-02T23:03:14.914Z,5.20
2019-02-02T23:05:52.354Z,5.20
2019-02-02T23:08:26.509Z,5.20
2019-02-02T23:11:13.907Z,5.20
2019-02-02T23:14:06.651Z,5.10
2019-02-02T23:16:35.758Z,4.80
2019-02-02T23:19:05.743Z,4.80
2019-02-02T23:21:34.424Z,4.70
2019-02-02T23:24:03.132Z,4.60
2019-02-02T23:26:31.827Z,4.60
2019-02-02T23:29:00.498Z,4.70
2019-02-02T23:31:29.276Z,4.50
2019-02-02T23:33:57.981Z,4.60
2019-02-02T23:36:26.694Z,4.70
2019-02-02T23:38:55.542Z,4.70
2019-02-02T23:41:24.274Z,4.70
2019-02-02T23:43:53.367Z,4.60
2019-02-02T23:46:22.077Z,4.50
2019-02-02T23:48:50.742Z,4.30
2019-02-02T23:51:19.766Z,4.40
2019-02-02T23:53:48.465Z,4.30
2019-02-02T23:56:17.144Z,4.40
2019-02-02T23:58:46.242Z,4.30
